createdAt,value
2022-12-12T00:01:06.512Z,-0.01
2022-12-12T00:06:10.674Z,-0.03
2022-12-12T00:11:14.856Z,-0.04
2022-12-12T00:16:19.104Z,-0.06
2022-12-12T00:21:23.161Z,-0.06
2022-12-12T00:26:27.341Z,-0.07
2022-12-12T00:31:31.617Z,-0.08
2022-12-12T00:36:35.645Z,-0.08
2022-12-12T00:41:39.831Z,-0.12
2022-12-12T00:46:44.002Z,-0.15
2022-12-12T00:51:48.171Z,-0.14
2022-12-12T00:56:52.314Z,-0.11
2022-12-12T01:01:56.546Z,-0.07
2022-12-12T01:07:00.688Z,-0.06
2022-12-12T01:12:04.823Z,-0.06
2022-12-12T01:17:09.003Z,-0.13
2022-12-12T01:22:13.138Z,-0.19
2022-12-12T01:27:17.305Z,-0.20
2022-12-12T01:32:21.493Z,-0.20
2022-12-12T01:37:25.656Z,-0.20
2022-12-12T01:42:29.827Z,-0.22
2022-12-12T01:47:34.001Z,-0.21
2022-12-12T01:52:38.190Z,-0.20
2022-12-12T01:57:42.317Z,-0.18
2022-12-12T02:02:46.504Z,-0.17
2022-12-12T02:07:50.756Z,-0.17
2022-12-12T02:12:55.328Z,-0.17
2022-12-12T02:18:02.240Z,-0.17
2022-12-12T02:23:03.196Z,-0.17
2022-12-12T02:28:07.322Z,-0.14
2022-12-12T02:33:11.518Z,-0.13
2022-12-12T02:38:15.670Z,-0.14
2022-12-12T02:43:19.845Z,-0.12
2022-12-12T02:48:24.003Z,-0.12
2022-12-12T02:53:28.142Z,-0.14
2022-12-12T02:58:32.341Z,-0.13
2022-12-12T03:03:36.498Z,-0.13
2022-12-12T03:08:38.756Z,-0.12
2022-12-12T03:13:42.939Z,-0.14
2022-12-12T03:18:47.074Z,-0.17
2022-12-12T03:23:51.283Z,-0.19
2022-12-12T03:28:55.428Z,-0.21
2022-12-12T03:33:59.574Z,-0.25
2022-12-12T03:39:03.745Z,-0.24
2022-12-12T03:44:07.923Z,-0.25
2022-12-12T03:49:12.078Z,-0.23
2022-12-12T03:54:16.259Z,-0.18
2022-12-12T03:59:24.173Z,-0.17
2022-12-12T04:04:24.580Z,-0.19
2022-12-12T04:09:28.733Z,-0.19
2022-12-12T04:14:32.925Z,-0.21
2022-12-12T04:19:37.121Z,-0.25
2022-12-12T04:24:41.250Z,-0.26
2022-12-12T04:29:45.423Z,-0.28
2022-12-12T04:34:49.586Z,-0.22
2022-12-12T04:39:53.733Z,-0.26
2022-12-12T04:44:57.928Z,-0.25
2022-12-12T04:50:02.061Z,-0.28
2022-12-12T04:55:06.250Z,-0.27
2022-12-12T05:00:10.422Z,-0.30
2022-12-12T05:05:14.705Z,-0.32
2022-12-12T05:10:18.756Z,-0.37
2022-12-12T05:15:22.873Z,-0.36
2022-12-12T05:20:27.471Z,-0.34
2022-12-12T05:25:31.243Z,-0.34
2022-12-12T05:30:35.523Z,-0.39
2022-12-12T05:35:39.563Z,-0.44
2022-12-12T05:40:43.720Z,-0.53
2022-12-12T05:45:47.971Z,-0.60
2022-12-12T05:50:52.075Z,-0.67
2022-12-12T05:55:56.212Z,-0.76
2022-12-12T06:01:03.364Z,-0.78
2022-12-12T06:06:04.577Z,-0.79
2022-12-12T06:11:08.717Z,-0.82
2022-12-12T06:16:13.013Z,-0.87
2022-12-12T06:21:17.077Z,-0.94
2022-12-12T06:26:21.259Z,-0.97
2022-12-12T06:31:25.402Z,-0.95
2022-12-12T06:36:29.559Z,-1.07
2022-12-12T06:41:33.730Z,-1.12
2022-12-12T06:46:37.931Z,-1.20
2022-12-12T06:51:42.086Z,-1.30
2022-12-12T06:56:48.185Z,-1.43
2022-12-12T07:01:50.477Z,-1.54
2022-12-12T07:06:54.585Z,-1.66
2022-12-12T07:11:58.722Z,-1.70
2022-12-12T07:17:02.908Z,-1.76
2022-12-12T07:22:10.099Z,-1.82
2022-12-12T07:27:11.234Z,-1.81
2022-12-12T07:32:15.369Z,-1.94
2022-12-12T07:37:19.549Z,-2.09
2022-12-12T07:42:23.730Z,-2.16
2022-12-12T07:47:27.871Z,-2.30
2022-12-12T07:52:32.074Z,-2.34
2022-12-12T07:57:36.236Z,-2.34
2022-12-12T08:02:40.384Z,-2.38
2022-12-12T08:07:44.580Z,-2.43
2022-12-12T08:12:48.757Z,-2.44
2022-12-12T08:17:52.877Z,-2.47
2022-12-12T08:22:57.111Z,-2.51
2022-12-12T08:28:01.246Z,-2.51
2022-12-12T08:33:08.067Z,-2.48
2022-12-12T08:38:07.659Z,-2.46
2022-12-12T08:43:11.829Z,-2.36
2022-12-12T08:48:16.005Z,-2.31
2022-12-12T08:53:20.184Z,-2.26
2022-12-12T08:58:24.360Z,-2.23
2022-12-12T09:03:29.789Z,-2.16
2022-12-12T09:08:32.737Z,-2.24
2022-12-12T09:13:36.858Z,-2.13
2022-12-12T09:18:47.802Z,-1.90
2022-12-12T09:23:45.165Z,-1.96
2022-12-12T09:28:49.356Z,-1.98
2022-12-12T09:33:53.544Z,-1.79
2022-12-12T09:38:57.697Z,-1.68
2022-12-12T09:44:01.836Z,-1.67
2022-12-12T09:49:05.995Z,-1.59
2022-12-12T09:54:10.197Z,-1.60
2022-12-12T09:59:14.329Z,-1.66
2022-12-12T10:04:18.593Z,-1.67
2022-12-12T10:09:22.666Z,-1.57
2022-12-12T10:14:26.864Z,-1.43
2022-12-12T10:19:31.037Z,-1.34
2022-12-12T10:24:35.209Z,-1.29
2022-12-12T10:29:41.523Z,-1.25
2022-12-12T10:34:43.622Z,-1.20
2022-12-12T10:39:47.711Z,-1.10
2022-12-12T10:44:51.869Z,-1.07
2022-12-12T10:49:56.020Z,-1.00
2022-12-12T10:55:00.234Z,-0.93
2022-12-12T11:00:04.324Z,-0.81
2022-12-12T11:05:08.531Z,-0.76
2022-12-12T11:10:12.685Z,-0.65
2022-12-12T11:15:16.849Z,-0.58
2022-12-12T11:20:20.994Z,-0.49
2022-12-12T11:25:25.194Z,-0.37
2022-12-12T11:30:29.340Z,-0.25
2022-12-12T11:35:33.503Z,-0.23
2022-12-12T11:40:37.688Z,-0.26
2022-12-12T11:45:41.956Z,-0.17
2022-12-12T11:50:46.011Z,-0.12
2022-12-12T11:55:50.176Z,0.02
2022-12-12T12:00:54.331Z,0.01
2022-12-12T12:05:58.526Z,-0.05
2022-12-12T12:11:02.687Z,-0.02
2022-12-12T12:16:06.846Z,0.07
2022-12-12T12:21:11.021Z,0.28
2022-12-12T12:26:15.187Z,0.48
2022-12-12T12:31:19.379Z,0.61
2022-12-12T12:36:23.480Z,0.72
2022-12-12T12:41:27.630Z,0.72
2022-12-12T12:46:31.863Z,0.78
2022-12-12T12:51:35.978Z,0.76
2022-12-12T12:56:43.752Z,0.77
2022-12-12T13:01:44.380Z,0.77
2022-12-12T13:06:48.486Z,0.90
2022-12-12T13:16:56.852Z,1.11
2022-12-12T13:22:01.000Z,1.12
2022-12-12T13:27:05.170Z,1.15
2022-12-12T13:32:09.341Z,1.18
2022-12-12T13:37:13.480Z,1.29
2022-12-12T13:42:17.660Z,1.36
2022-12-12T13:47:21.826Z,1.41
2022-12-12T13:52:25.972Z,1.46
2022-12-12T13:57:30.160Z,1.50
2022-12-12T14:02:34.350Z,1.43
2022-12-12T14:07:36.602Z,1.24
2022-12-12T14:12:40.721Z,1.10
2022-12-12T14:17:44.934Z,1.06
2022-12-12T14:22:49.062Z,1.04
2022-12-12T14:27:53.277Z,1.08
2022-12-12T14:32:57.404Z,0.98
2022-12-12T14:37:59.681Z,0.92
2022-12-12T14:43:19.600Z,0.88
2022-12-12T14:48:07.990Z,0.76
2022-12-12T14:53:12.168Z,0.50
2022-12-12T14:58:16.337Z,0.26
2022-12-12T15:03:20.564Z,-0.03
2022-12-12T15:08:24.719Z,-0.25
2022-12-12T15:13:28.861Z,-0.36
2022-12-12T15:18:32.972Z,-0.47
2022-12-12T15:23:37.199Z,-0.62
2022-12-12T15:33:45.525Z,-0.93
2022-12-12T15:38:49.676Z,-1.09
2022-12-12T15:43:53.840Z,-1.25
2022-12-12T15:48:58.002Z,-1.09
2022-12-12T15:54:02.177Z,-1.01
2022-12-12T15:59:06.313Z,-0.95
2022-12-12T16:04:10.540Z,-1.02
2022-12-12T16:09:14.668Z,-1.09
2022-12-12T16:14:18.832Z,-1.25
2022-12-12T16:19:23.016Z,-1.39
2022-12-12T16:24:27.146Z,-1.56
2022-12-12T16:29:31.351Z,-1.60
2022-12-12T16:34:35.468Z,-1.78
2022-12-12T16:39:39.690Z,-1.93
2022-12-12T16:44:43.852Z,-1.96
2022-12-12T16:49:47.971Z,-2.07
2022-12-12T16:54:53.879Z,-2.20
2022-12-12T16:59:56.314Z,-2.34
2022-12-12T17:05:00.485Z,-2.40
2022-12-12T17:10:04.658Z,-2.47
2022-12-12T17:15:08.813Z,-2.54
2022-12-12T17:20:13.480Z,-2.51
2022-12-12T17:25:17.143Z,-2.58
2022-12-12T17:30:21.296Z,-2.58
2022-12-12T17:35:25.499Z,-2.46
2022-12-12T17:40:29.627Z,-2.56
2022-12-12T17:45:33.851Z,-2.59
2022-12-12T17:50:41.805Z,-2.59
2022-12-12T17:55:53.155Z,-2.62
2022-12-12T18:00:46.352Z,-2.85
2022-12-12T18:05:50.530Z,-2.98
2022-12-12T18:10:54.641Z,-2.91
2022-12-12T18:15:58.837Z,-2.77
2022-12-12T18:21:03.020Z,-2.81
2022-12-12T18:26:07.156Z,-2.83
2022-12-12T18:31:11.335Z,-2.94
2022-12-12T18:36:15.526Z,-3.08
2022-12-12T18:41:19.650Z,-3.02
2022-12-12T18:46:23.911Z,-3.01
2022-12-12T18:51:28.019Z,-3.03
2022-12-12T19:01:36.401Z,-3.12
2022-12-12T19:06:40.534Z,-3.15
2022-12-12T19:11:44.675Z,-3.14
2022-12-12T19:16:48.877Z,-3.32
2022-12-12T19:21:53.034Z,-3.53
2022-12-12T19:26:57.187Z,-3.48
2022-12-12T19:32:01.328Z,-3.38
2022-12-12T19:37:05.543Z,-3.43
2022-12-12T19:42:09.762Z,-3.43
2022-12-12T19:47:13.835Z,-3.44
2022-12-12T19:52:18.029Z,-3.59
2022-12-12T19:57:22.151Z,-3.77
2022-12-12T20:02:26.409Z,-3.78
2022-12-12T20:07:28.877Z,-3.74
2022-12-12T20:12:32.793Z,-3.78
2022-12-12T20:17:36.951Z,-3.93
2022-12-12T20:22:41.236Z,-4.01
2022-12-12T20:27:45.309Z,-4.14
2022-12-12T20:32:49.461Z,-4.09
2022-12-12T20:37:53.674Z,-3.98
2022-12-12T20:43:03.189Z,-3.90
2022-12-12T20:48:07.403Z,-3.92
2022-12-12T20:53:06.113Z,-3.90
2022-12-12T20:58:10.310Z,-3.98
2022-12-12T21:03:14.569Z,-4.09
2022-12-12T21:08:18.789Z,-4.21
2022-12-12T21:13:22.831Z,-4.20
2022-12-12T21:18:26.983Z,-4.15
2022-12-12T21:23:31.173Z,-4.09
2022-12-12T21:28:35.319Z,-4.17
2022-12-12T21:33:39.506Z,-4.21
2022-12-12T21:38:43.655Z,-4.28
2022-12-12T21:43:47.852Z,-4.37
2022-12-12T21:48:52.005Z,-4.40
2022-12-12T21:53:56.147Z,-4.50
2022-12-12T21:59:00.379Z,-4.57
2022-12-12T22:04:04.483Z,-4.52
2022-12-12T22:09:08.788Z,-4.40
2022-12-12T22:14:12.845Z,-4.38
2022-12-12T22:19:17.019Z,-4.51
2022-12-12T22:24:21.211Z,-4.63
2022-12-12T22:29:25.371Z,-4.68
2022-12-12T22:34:29.526Z,-4.63
2022-12-12T22:39:33.686Z,-4.64
2022-12-12T22:44:37.824Z,-4.68
2022-12-12T22:49:41.997Z,-4.74
2022-12-12T22:54:46.174Z,-4.74
2022-12-12T22:59:50.318Z,-4.71
2022-12-12T23:04:54.639Z,-4.60
2022-12-12T23:09:58.692Z,-4.69
2022-12-12T23:15:02.885Z,-4.68
2022-12-12T23:20:07.059Z,-4.66
2022-12-12T23:25:11.227Z,-4.60
2022-12-12T23:30:15.378Z,-4.56
2022-12-12T23:35:19.503Z,-4.52
2022-12-12T23:40:23.673Z,-4.57
2022-12-12T23:45:27.894Z,-4.61
2022-12-12T23:50:32.067Z,-4.68
2022-12-12T23:55:36.222Z,-4.66
